Time;durP1;ratioP1;P1;durP2;ratioP2;P2;SDS_P1;SDS_P2;PMS_P1;PMS_P2;Temp;Humidity;BMP_temperature;BMP_pressure;BME280_temperature;BME280_humidity;BME280_pressure;Samples;Min_cycle;Max_cycle;Signal;HPM_P1;HPM_P2
2023/12/14 06:02:01;;;;;;;8.93;4.65;;;6.80;94.20;;;;;;4142777;23;20099;-84
2023/12/14 06:04:04;;;;;;;7.28;4.68;;;6.80;94.10;;;;;;4084793;29;20052;-83
2023/12/14 06:06:06;;;;;;;7.20;4.90;;;6.80;94.10;;;;;;4084774;29;20485;-84
2023/12/14 06:08:07;;;;;;;7.68;5.32;;;6.80;94.10;;;;;;4084673;29;20400;-82
2023/12/14 06:10:10;;;;;;;7.45;5.05;;;6.80;94.10;;;;;;4083611;29;20123;-82
2023/12/14 06:12:11;;;;;;;6.95;4.47;;;6.80;94.10;;;;;;4084815;29;20060;-83
2023/12/14 06:14:13;;;;;;;6.78;4.53;;;6.80;94.20;;;;;;4084670;29;20048;-83
2023/12/14 06:16:15;;;;;;;6.53;4.22;;;6.80;94.10;;;;;;4084641;29;20052;-84
2023/12/14 06:18:18;;;;;;;6.65;4.55;;;6.80;94.20;;;;;;4084600;29;20453;-82
2023/12/14 06:20:20;;;;;;;7.35;4.45;;;6.70;94.20;;;;;;4085015;29;20048;-85
2023/12/14 06:22:22;;;;;;;6.32;4.20;;;6.70;94.20;;;;;;4083403;29;20062;-83
2023/12/14 06:24:24;;;;;;;7.40;4.45;;;6.70;94.40;;;;;;4084301;29;20095;-83
2023/12/14 06:26:25;;;;;;;7.80;4.25;;;6.70;94.40;;;;;;4084602;29;20485;-83
2023/12/14 06:28:27;;;;;;;6.50;3.65;;;6.70;94.40;;;;;;4084635;29;20429;-84
2023/12/14 06:30:29;;;;;;;6.65;4.22;;;6.70;94.40;;;;;;4084347;29;20103;-84
2023/12/14 06:32:31;;;;;;;7.00;4.03;;;6.80;94.40;;;;;;4085452;29;20047;-83
2023/12/14 06:34:34;;;;;;;7.93;4.03;;;6.70;94.20;;;;;;4084451;29;20044;-84
2023/12/14 06:36:36;;;;;;;6.18;4.07;;;6.70;94.30;;;;;;4084568;29;20099;-83
2023/12/14 06:38:40;;;;;;;7.60;4.10;;;6.70;94.40;;;;;;4084572;29;20122;-84
2023/12/14 06:40:42;;;;;;;7.20;3.67;;;6.70;94.40;;;;;;4084688;29;20087;-83
2023/12/14 06:42:44;;;;;;;6.45;3.72;;;6.70;94.30;;;;;;4084189;29;20043;-84
2023/12/14 06:44:46;;;;;;;6.57;3.78;;;6.70;94.40;;;;;;4084299;29;20103;-83
2023/12/14 06:46:48;;;;;;;6.65;3.67;;;6.70;94.50;;;;;;4084939;29;20426;-84
2023/12/14 06:48:50;;;;;;;5.60;3.40;;;6.70;94.50;;;;;;4084881;29;20055;-83
2023/12/14 06:50:54;;;;;;;5.20;3.33;;;6.70;94.40;;;;;;4085186;29;20206;-83
2023/12/14 06:52:56;;;;;;;5.78;3.42;;;6.80;94.40;;;;;;4085181;29;20134;-84
2023/12/14 06:54:58;;;;;;;7.60;3.55;;;6.70;94.40;;;;;;4092019;29;20039;-84
2023/12/14 06:57:00;;;;;;;5.78;3.65;;;6.80;94.40;;;;;;4085689;29;20067;-84
2023/12/14 06:59:02;;;;;;;6.60;4.00;;;6.80;94.40;;;;;;4083608;29;20091;-84
2023/12/14 07:01:04;;;;;;;6.45;3.70;;;6.80;94.30;;;;;;4084010;29;20056;-83
2023/12/14 07:03:06;;;;;;;6.53;3.75;;;6.80;94.20;;;;;;4086086;29;20472;-83
2023/12/14 07:05:08;;;;;;;5.13;3.20;;;6.80;94.20;;;;;;4087140;29;20047;-82
2023/12/14 07:07:12;;;;;;;5.50;3.53;;;6.80;94.20;;;;;;4087410;29;20131;-83
2023/12/14 07:09:14;;;;;;;6.75;3.70;;;6.90;94.20;;;;;;4086962;29;20098;-83
2023/12/14 07:11:17;;;;;;;6.13;3.83;;;6.90;94.10;;;;;;4086918;29;20103;-85
2023/12/14 07:13:18;;;;;;;8.10;4.15;;;6.80;94.20;;;;;;4087611;29;20058;-84
2023/12/14 07:15:19;;;;;;;8.45;4.15;;;6.80;94.40;;;;;;4087746;29;20075;-84
2023/12/14 07:17:21;;;;;;;7.53;4.47;;;6.70;94.50;;;;;;4087862;29;20047;-84
2023/12/14 07:19:23;;;;;;;7.07;4.93;;;6.70;94.80;;;;;;4087720;29;20056;-84
2023/12/14 07:21:25;;;;;;;6.80;4.80;;;6.60;95.00;;;;;;4088428;29;20453;-83
2023/12/14 07:23:28;;;;;;;9.27;5.45;;;6.70;95.10;;;;;;4085886;29;20051;-83
2023/12/14 07:25:30;;;;;;;8.50;5.68;;;6.70;95.10;;;;;;4087287;29;20058;-83
2023/12/14 07:27:32;;;;;;;8.75;5.47;;;6.70;95.40;;;;;;4088050;29;20051;-83
2023/12/14 07:29:34;;;;;;;11.18;6.32;;;6.80;95.00;;;;;;4087420;29;20103;-84
2023/12/14 07:31:36;;;;;;;14.88;8.35;;;6.80;94.90;;;;;;4086907;29;20051;-85
2023/12/14 07:33:38;;;;;;;10.27;5.60;;;6.80;94.80;;;;;;4087199;29;20102;-83
2023/12/14 07:35:38;;;;;;;9.20;5.63;;;6.80;94.70;;;;;;4087046;29;20382;-83
2023/12/14 07:37:40;;;;;;;7.63;4.70;;;6.90;94.70;;;;;;4087059;29;20104;-82
2023/12/14 07:39:43;;;;;;;8.30;5.40;;;6.90;94.70;;;;;;4086935;29;20103;-82
2023/12/14 07:41:44;;;;;;;8.60;5.43;;;6.80;94.90;;;;;;4086600;29;20497;-83
2023/12/14 07:43:46;;;;;;;9.68;5.80;;;6.80;95.00;;;;;;4086750;29;20055;-83
2023/12/14 07:45:47;;;;;;;8.18;4.97;;;6.70;95.20;;;;;;4101337;28;20062;-83
2023/12/14 07:47:49;;;;;;;10.13;5.60;;;6.60;95.40;;;;;;4086509;29;20460;-84
2023/12/14 07:49:51;;;;;;;7.53;5.13;;;6.60;95.50;;;;;;4086480;29;20051;-84
2023/12/14 07:51:53;;;;;;;9.00;5.35;;;6.70;95.40;;;;;;4086005;29;20095;-84
2023/12/14 07:53:55;;;;;;;9.02;5.90;;;6.70;95.20;;;;;;4089220;29;20130;-84
2023/12/14 07:56:01;;;;;;;9.77;5.65;;;6.80;95.30;;;;;;4091544;29;20043;-85
2023/12/14 07:58:03;;;;;;;10.50;6.20;;;6.80;95.30;;;;;;4090690;29;20052;-86
2023/12/14 08:00:08;;;;;;;8.70;6.00;;;6.80;95.10;;;;;;4086114;29;20048;-85
2023/12/14 08:02:10;;;;;;;8.45;5.68;;;6.90;95.00;;;;;;4101008;28;20055;-85
2023/12/14 08:04:11;;;;;;;8.13;5.70;;;6.90;94.90;;;;;;4086124;29;20114;-84
2023/12/14 08:06:13;;;;;;;8.20;4.93;;;6.90;95.00;;;;;;4085202;29;20055;-84
2023/12/14 08:08:15;;;;;;;9.93;5.80;;;6.90;94.90;;;;;;4086505;29;20047;-83
2023/12/14 08:10:17;;;;;;;9.85;5.68;;;6.90;94.90;;;;;;4086148;29;20095;-85
2023/12/14 08:12:21;;;;;;;11.43;5.47;;;7.00;94.80;;;;;;4085264;29;20044;-84
2023/12/14 08:14:22;;;;;;;7.88;5.32;;;7.10;94.60;;;;;;4085045;29;20048;-84
2023/12/14 08:16:24;;;;;;;9.18;5.18;;;7.10;94.50;;;;;;4086260;29;20058;-84
2023/12/14 08:18:26;;;;;;;8.82;5.35;;;7.10;94.50;;;;;;4086161;29;20390;-85
2023/12/14 08:20:29;;;;;;;7.50;5.38;;;7.10;94.60;;;;;;4086472;29;20052;-83
2023/12/14 08:22:31;;;;;;;8.18;5.30;;;7.10;94.50;;;;;;4086165;29;20089;-85
2023/12/14 08:24:32;;;;;;;8.05;5.10;;;7.10;94.40;;;;;;4085970;29;20088;-83
2023/12/14 08:26:34;;;;;;;7.60;4.95;;;7.10;94.40;;;;;;4085880;29;20051;-84
2023/12/14 08:28:38;;;;;;;8.07;5.32;;;7.20;94.40;;;;;;4085999;29;20103;-83
2023/12/14 08:30:39;;;;;;;8.90;5.65;;;7.10;94.30;;;;;;4087474;29;20099;-84
2023/12/14 08:32:42;;;;;;;9.25;5.80;;;7.20;94.30;;;;;;4087106;29;20048;-84
2023/12/14 08:34:44;;;;;;;9.10;6.00;;;7.10;94.40;;;;;;4086086;29;20505;-83
2023/12/14 08:36:46;;;;;;;9.07;5.95;;;7.20;94.40;;;;;;4086263;29;20058;-85
2023/12/14 08:38:48;;;;;;;29.70;15.10;;;7.10;94.30;;;;;;4086077;29;20044;-83
2023/12/14 08:40:50;;;;;;;12.45;7.15;;;7.20;94.30;;;;;;4085977;29;20047;-84
2023/12/14 08:42:51;;;;;;;8.65;5.88;;;7.20;94.60;;;;;;4086290;29;20093;-83
2023/12/14 08:44:55;;;;;;;9.70;5.53;;;7.20;94.30;;;;;;4086158;29;20531;-85
2023/12/14 08:46:55;;;;;;;8.60;5.68;;;7.20;94.30;;;;;;4087935;29;20048;-84
2023/12/14 08:48:57;;;;;;;15.57;9.15;;;7.20;94.30;;;;;;4093783;29;20110;-83
2023/12/14 08:50:59;;;;;;;10.48;6.03;;;7.20;94.30;;;;;;4085788;29;20051;-85
2023/12/14 08:53:01;;;;;;;21.83;12.32;;;7.20;94.20;;;;;;4086212;29;20052;-83
2023/12/14 08:55:04;;;;;;;11.82;7.50;;;7.30;94.30;;;;;;4085378;29;20055;-84
2023/12/14 08:57:06;;;;;;;7.30;5.53;;;7.30;94.20;;;;;;4085573;29;20047;-84
2023/12/14 08:59:08;;;;;;;11.68;6.90;;;7.30;94.10;;;;;;4085835;29;20061;-84
2023/12/14 09:01:12;;;;;;;21.25;11.73;;;7.30;94.20;;;;;;4100615;28;20059;-84
2023/12/14 09:03:13;;;;;;;12.40;5.97;;;7.40;94.20;;;;;;4119982;28;20129;-84
2023/12/14 09:05:16;;;;;;;9.50;5.30;;;7.40;94.10;;;;;;4124961;28;20055;-82
2023/12/14 09:07:18;;;;;;;9.90;5.80;;;7.40;94.00;;;;;;4117943;28;20065;-85
2023/12/14 09:09:20;;;;;;;9.05;5.80;;;7.50;94.10;;;;;;4121672;28;20034;-82
2023/12/14 09:11:21;;;;;;;7.95;5.28;;;7.50;94.00;;;;;;4130381;28;20054;-83
2023/12/14 09:13:22;;;;;;;8.48;5.13;;;7.40;94.00;;;;;;4129826;28;20114;-84
2023/12/14 09:15:24;;;;;;;7.80;5.35;;;7.40;94.30;;;;;;4126933;28;20074;-83
2023/12/14 09:17:32;;;;;;;8.02;5.40;;;7.30;94.50;;;;;;4128905;28;20121;-84
2023/12/14 09:19:34;;;;;;;10.93;5.93;;;7.30;94.60;;;;;;4122272;28;20133;-82
2023/12/14 09:21:36;;;;;;;8.38;5.15;;;7.30;94.60;;;;;;4118763;28;20543;-84
2023/12/14 09:23:38;;;;;;;9.02;5.63;;;7.30;94.90;;;;;;4118414;28;20382;-85
2023/12/14 09:25:39;;;;;;;10.02;5.30;;;7.30;94.60;;;;;;4127162;28;20102;-84
2023/12/14 09:27:41;;;;;;;7.53;5.18;;;7.30;94.60;;;;;;4126313;28;20058;-83
2023/12/14 09:29:43;;;;;;;7.80;5.57;;;7.30;94.60;;;;;;4123370;28;20046;-83
2023/12/14 09:31:45;;;;;;;7.22;5.20;;;7.30;94.70;;;;;;4108533;29;20051;-85
2023/12/14 09:33:49;;;;;;;7.00;5.47;;;7.30;94.40;;;;;;4127466;28;20476;-85
2023/12/14 09:35:50;;;;;;;7.78;4.80;;;7.30;94.60;;;;;;4123153;28;20471;-85
2023/12/14 09:37:53;;;;;;;7.70;5.18;;;7.20;94.70;;;;;;4114115;28;20047;-84
2023/12/14 09:39:55;;;;;;;7.90;5.40;;;7.30;94.70;;;;;;4114882;28;20089;-82
2023/12/14 09:42:04;;;;;;;7.68;5.63;;;7.30;94.70;;;;;;4115414;28;20101;-84
2023/12/14 09:44:06;;;;;;;8.00;5.60;;;7.40;94.70;;;;;;4115840;28;20057;-84
2023/12/14 09:46:10;;;;;;;8.40;6.07;;;7.40;94.80;;;;;;4115593;28;20147;-83
2023/12/14 09:48:13;;;;;;;10.40;5.65;;;7.40;94.90;;;;;;4115416;28;20492;-85
2023/12/14 09:50:16;;;;;;;9.10;6.28;;;7.40;94.50;;;;;;4114946;28;20145;-84
2023/12/14 09:52:18;;;;;;;8.43;6.22;;;7.40;94.50;;;;;;4114939;28;20042;-84
2023/12/14 09:54:19;;;;;;;8.02;5.43;;;7.40;94.80;;;;;;4113457;28;20511;-83
2023/12/14 09:56:21;;;;;;;10.75;5.60;;;7.40;94.70;;;;;;4115027;28;20098;-83
2023/12/14 09:58:23;;;;;;;8.77;5.63;;;7.40;94.50;;;;;;4097566;29;20116;-83
2023/12/14 10:00:35;;;;;;;8.40;5.80;;;7.40;94.50;;;;;;4114645;28;20051;-82
2023/12/14 10:02:38;;;;;;;9.23;6.00;;;7.40;94.40;;;;;;4114686;28;20106;-82
2023/12/14 10:04:40;;;;;;;10.27;6.53;;;7.40;94.50;;;;;;4114626;28;20051;-83
2023/12/14 10:06:44;;;;;;;9.55;6.65;;;7.40;94.70;;;;;;4115220;28;20054;-83
2023/12/14 10:08:56;;;;;;;31.77;17.13;;;7.40;94.70;;;;;;4115793;28;20818;-83
2023/12/14 10:10:58;;;;;;;10.43;7.05;;;7.40;94.70;;;;;;4114705;28;20412;-83
2023/12/14 10:12:59;;;;;;;10.30;6.95;;;7.50;94.70;;;;;;4116204;28;20204;-84
2023/12/14 10:15:06;;;;;;;8.98;6.53;;;7.50;94.70;;;;;;4115603;28;20263;-82
2023/12/14 10:17:20;;;;;;;9.65;6.18;;;7.60;94.50;;;;;;4115944;28;20062;-83
2023/12/14 10:19:22;;;;;;;10.43;6.15;;;7.60;94.20;;;;;;4115071;28;20149;-82
2023/12/14 10:21:23;;;;;;;10.18;6.32;;;7.60;94.40;;;;;;4097604;28;20055;-83
2023/12/14 10:23:29;;;;;;;9.55;6.65;;;7.60;94.30;;;;;;4115003;28;20113;-83
2023/12/14 10:25:31;;;;;;;11.93;6.80;;;7.60;94.40;;;;;;4114857;28;20059;-84
2023/12/14 10:27:32;;;;;;;8.95;6.07;;;7.60;94.30;;;;;;4097303;28;20051;-81
2023/12/14 10:29:34;;;;;;;10.88;6.80;;;7.60;94.40;;;;;;4114443;28;20125;-84
2023/12/14 10:31:38;;;;;;;11.45;6.53;;;7.60;94.50;;;;;;4114583;28;20062;-85
2023/12/14 10:33:39;;;;;;;10.07;7.10;;;7.60;94.50;;;;;;4114402;28;20165;-84
2023/12/14 10:35:44;;;;;;;10.60;6.93;;;7.70;94.40;;;;;;4097191;28;20051;-85
2023/12/14 10:37:51;;;;;;;11.18;7.00;;;7.70;94.20;;;;;;4115821;28;20055;-83
2023/12/14 10:39:55;;;;;;;12.85;7.93;;;7.70;94.40;;;;;;4117648;28;20062;-84
2023/12/14 10:41:58;;;;;;;10.18;7.03;;;7.50;94.60;;;;;;4116707;28;20055;-82
2023/12/14 10:44:02;;;;;;;10.55;7.15;;;7.50;94.90;;;;;;4125361;28;20058;-81
2023/12/14 10:46:07;;;;;;;11.95;7.18;;;7.50;94.80;;;;;;4120233;28;20059;-80
2023/12/14 10:48:09;;;;;;;11.35;6.65;;;7.60;94.90;;;;;;4119455;28;20057;-82
2023/12/14 10:50:11;;;;;;;10.13;6.47;;;7.60;94.50;;;;;;4118739;28;20113;-82
2023/12/14 10:52:13;;;;;;;10.52;6.32;;;7.80;94.50;;;;;;4119341;28;20055;-82
2023/12/14 10:54:17;;;;;;;8.32;6.13;;;7.90;94.40;;;;;;4119122;28;20054;-81
2023/12/14 10:56:21;;;;;;;9.32;6.35;;;7.90;94.30;;;;;;4119346;28;20042;-82
2023/12/14 10:58:22;;;;;;;11.23;7.20;;;8.10;94.20;;;;;;4119317;28;20085;-83
2023/12/14 11:00:24;;;;;;;12.82;7.30;;;8.20;94.00;;;;;;4119197;28;20424;-82
2023/12/14 11:02:25;;;;;;;10.43;6.75;;;8.40;94.00;;;;;;4119402;28;20051;-82
2023/12/14 11:04:28;;;;;;;10.13;6.38;;;8.50;93.70;;;;;;4118000;28;20397;-85
2023/12/14 11:06:32;;;;;;;9.25;5.38;;;8.50;93.80;;;;;;4118967;28;20046;-82
2023/12/14 11:08:34;;;;;;;8.27;5.63;;;8.40;93.20;;;;;;4119273;28;20043;-81
2023/12/14 11:10:41;;;;;;;8.73;5.88;;;8.30;93.20;;;;;;4119102;28;20047;-83
2023/12/14 11:13:02;;;;;;;10.25;5.57;;;8.40;93.80;;;;;;4118768;28;20118;-82
2023/12/14 11:15:06;;;;;;;16.20;9.85;;;8.30;93.00;;;;;;4119213;28;20505;-82
2023/12/14 11:17:12;;;;;;;12.18;6.93;;;8.30;93.10;;;;;;4119086;28;20411;-83
2023/12/14 11:19:30;;;;;;;;;;;8.20;93.40;;;;;;4119447;28;20109;-83
2023/12/14 11:21:32;;;;;;;9.43;5.57;;;8.30;93.30;;;;;;4118893;28;19944;-83
2023/12/14 11:23:38;;;;;;;8.55;5.63;;;8.30;93.30;;;;;;4119135;28;20594;-82
2023/12/14 11:25:40;;;;;;;9.25;5.20;;;8.30;93.50;;;;;;4101705;29;20047;-83
2023/12/14 11:27:44;;;;;;;10.05;6.07;;;8.40;93.40;;;;;;4118571;28;20058;-82
2023/12/14 11:29:49;;;;;;;7.05;4.30;;;8.50;93.30;;;;;;4118814;28;20098;-82
2023/12/14 11:31:51;;;;;;;7.07;4.22;;;8.60;92.90;;;;;;4118945;28;20098;-83
2023/12/14 11:33:55;;;;;;;6.30;4.07;;;8.70;92.90;;;;;;4118966;28;20051;-80
2023/12/14 11:35:57;;;;;;;5.97;3.97;;;8.70;92.40;;;;;;4118820;28;20495;-83
2023/12/14 11:38:02;;;;;;;6.28;3.40;;;8.80;92.00;;;;;;4118677;28;20051;-82
2023/12/14 11:40:07;;;;;;;5.57;3.53;;;8.80;92.30;;;;;;4118724;28;20050;-82
2023/12/14 11:42:10;;;;;;;4.85;2.40;;;8.90;92.20;;;;;;4119026;28;20102;-82
2023/12/14 11:44:23;;;;;;;4.70;2.50;;;8.90;90.10;;;;;;4101583;28;20534;-83
2023/12/14 11:46:26;;;;;;;5.43;2.30;;;9.00;89.30;;;;;;4118625;28;20054;-82
2023/12/14 11:48:28;;;;;;;7.18;2.58;;;9.10;90.10;;;;;;4118153;28;20042;-81
2023/12/14 11:50:29;;;;;;;3.95;2.35;;;9.20;89.60;;;;;;4118351;28;20098;-81
2023/12/14 11:52:31;;;;;;;5.00;2.30;;;9.20;89.10;;;;;;4118755;28;20058;-82
2023/12/14 11:54:33;;;;;;;4.88;2.55;;;9.30;88.30;;;;;;4118460;28;20078;-83
2023/12/14 11:56:35;;;;;;;5.88;2.80;;;9.30;89.20;;;;;;4117138;28;20074;-82
2023/12/14 11:58:37;;;;;;;4.88;3.00;;;9.40;90.20;;;;;;4118322;28;20050;-83
2023/12/14 12:00:39;;;;;;;6.63;3.38;;;9.60;90.00;;;;;;4118306;28;20047;-82
2023/12/14 12:02:43;;;;;;;6.75;3.50;;;9.70;89.90;;;;;;4101355;28;20507;-82
2023/12/14 12:04:52;;;;;;;6.85;4.20;;;9.50;90.30;;;;;;4118726;28;20051;-84
2023/12/14 12:07:05;;;;;;;8.25;4.95;;;9.30;90.60;;;;;;4118304;28;20086;-82
2023/12/14 12:09:10;;;;;;;6.10;3.60;;;9.30;91.00;;;;;;4118124;28;20476;-82
2023/12/14 12:11:16;;;;;;;6.07;3.43;;;9.40;91.00;;;;;;4118612;28;20094;-82
2023/12/14 12:13:21;;;;;;;7.50;3.95;;;9.40;91.00;;;;;;4118060;28;20446;-81
2023/12/14 12:15:23;;;;;;;5.57;3.47;;;9.40;90.80;;;;;;4117593;28;20050;-82
2023/12/14 12:17:26;;;;;;;5.68;3.58;;;9.30;90.50;;;;;;4117854;28;20050;-83
2023/12/14 12:19:29;;;;;;;11.55;6.70;;;9.20;90.60;;;;;;4118126;28;20057;-82
2023/12/14 12:21:31;;;;;;;6.90;4.40;;;9.20;91.00;;;;;;4118406;28;20054;-83
2023/12/14 12:23:34;;;;;;;6.03;3.38;;;9.20;91.00;;;;;;4118075;28;20065;-83
2023/12/14 12:25:35;;;;;;;8.50;3.90;;;9.20;91.20;;;;;;4117594;28;20113;-83
2023/12/14 12:27:37;;;;;;;8.50;4.65;;;9.10;91.20;;;;;;4117732;28;20570;-84
2023/12/14 12:29:39;;;;;;;9.52;4.90;;;9.10;91.40;;;;;;4103241;28;20394;-83
2023/12/14 12:31:42;;;;;;;5.85;3.50;;;9.10;91.60;;;;;;4099911;29;20051;-83
2023/12/14 12:33:44;;;;;;;8.68;5.00;;;9.10;91.10;;;;;;4110565;28;20073;-82
2023/12/14 12:35:47;;;;;;;8.93;3.90;;;9.20;91.10;;;;;;4113428;28;20094;-81
2023/12/14 12:37:53;;;;;;;6.47;3.20;;;9.20;90.90;;;;;;4116053;28;20059;-82
2023/12/14 12:39:54;;;;;;;;;;;9.20;90.90;;;;;;4116438;28;20061;-80
2023/12/14 12:41:56;;;;;;;6.95;3.70;;;9.20;90.70;;;;;;4119408;28;19925;-80
2023/12/14 12:43:59;;;;;;;6.43;3.70;;;9.20;91.30;;;;;;4120542;28;20055;-84
2023/12/14 12:46:02;;;;;;;7.65;3.63;;;9.10;91.20;;;;;;4115944;28;20051;-83
2023/12/14 12:48:06;;;;;;;8.93;3.50;;;9.00;91.50;;;;;;4115591;28;20428;-84
2023/12/14 12:50:09;;;;;;;6.35;3.58;;;9.10;91.70;;;;;;4115593;28;20097;-85
2023/12/14 12:52:12;;;;;;;5.15;3.30;;;9.10;91.40;;;;;;4115350;28;20050;-82
2023/12/14 12:54:15;;;;;;;8.10;5.40;;;9.20;91.30;;;;;;4115632;28;20051;-84
2023/12/14 12:56:17;;;;;;;6.75;3.97;;;9.20;91.20;;;;;;4114272;28;20061;-85
2023/12/14 12:58:18;;;;;;;6.18;3.00;;;9.10;91.00;;;;;;4113201;28;20093;-82
2023/12/14 13:00:22;;;;;;;5.88;2.85;;;9.40;90.70;;;;;;4127925;28;20042;-82
2023/12/14 13:02:24;;;;;;;7.25;2.80;;;9.40;90.10;;;;;;4131504;28;20050;-82
2023/12/14 13:04:30;;;;;;;5.10;2.55;;;9.30;90.40;;;;;;4125255;28;20117;-83
2023/12/14 13:06:31;;;;;;;4.78;2.75;;;9.30;90.70;;;;;;4114452;28;20109;-81
2023/12/14 13:08:34;;;;;;;6.40;2.70;;;9.50;90.10;;;;;;4115803;28;20057;-83
2023/12/14 13:10:38;;;;;;;5.63;2.72;;;9.70;90.00;;;;;;4116187;28;20046;-84
2023/12/14 13:12:41;;;;;;;6.13;2.97;;;9.70;88.80;;;;;;4115820;28;20055;-83
2023/12/14 13:14:44;;;;;;;6.40;3.00;;;9.40;89.00;;;;;;4115632;28;20054;-83
2023/12/14 13:16:47;;;;;;;4.90;2.38;;;9.30;90.10;;;;;;4098512;29;20052;-82
2023/12/14 13:18:50;;;;;;;6.57;2.30;;;9.10;84.40;;;;;;4116509;28;20047;-84
2023/12/14 13:20:51;;;;;;;4.57;2.38;;;9.10;84.50;;;;;;4099483;29;20083;-82
2023/12/14 13:22:53;;;;;;;6.85;2.58;;;9.10;83.80;;;;;;4116542;28;20043;-84
2023/12/14 13:24:57;;;;;;;4.00;1.92;;;9.00;84.10;;;;;;4116552;28;20053;-83
2023/12/14 13:26:58;;;;;;;5.97;2.05;;;9.00;81.20;;;;;;4116772;28;20055;-83
2023/12/14 13:29:01;;;;;;;4.45;2.05;;;8.80;80.60;;;;;;4116429;28;20090;-83
2023/12/14 13:31:03;;;;;;;4.20;2.20;;;8.80;81.10;;;;;;4117006;28;20042;-83
2023/12/14 13:33:06;;;;;;;4.03;2.00;;;8.80;79.70;;;;;;4116699;28;20146;-84
2023/12/14 13:35:09;;;;;;;5.25;2.40;;;8.70;80.30;;;;;;4117476;28;20047;-84
2023/12/14 13:37:11;;;;;;;4.65;2.13;;;8.60;79.80;;;;;;4121654;28;20477;-84
2023/12/14 13:39:12;;;;;;;5.88;2.40;;;8.60;81.30;;;;;;4116971;28;20101;-82
2023/12/14 13:41:15;;;;;;;3.33;2.03;;;8.60;80.80;;;;;;4116374;28;20051;-82
2023/12/14 13:43:16;;;;;;;4.88;2.20;;;8.70;80.80;;;;;;4116418;28;20059;-83
2023/12/14 13:45:18;;;;;;;4.97;2.42;;;8.70;81.90;;;;;;4099320;29;20054;-83
2023/12/14 13:47:20;;;;;;;4.38;2.22;;;8.70;82.20;;;;;;4117156;28;20070;-83
2023/12/14 13:49:22;;;;;;;5.47;2.50;;;8.60;82.40;;;;;;4116784;28;20043;-83
2023/12/14 13:51:24;;;;;;;6.65;2.90;;;8.60;82.60;;;;;;4116524;28;20061;-82
2023/12/14 13:53:26;;;;;;;7.35;3.60;;;8.60;83.50;;;;;;4116399;28;20393;-84
2023/12/14 13:55:27;;;;;;;7.25;2.85;;;8.60;84.40;;;;;;4118123;28;20086;-83
2023/12/14 13:57:31;;;;;;;5.65;2.20;;;8.50;84.60;;;;;;4119505;28;20405;-84
2023/12/14 13:59:33;;;;;;;8.30;2.40;;;8.40;86.30;;;;;;4123668;28;20077;-83
2023/12/14 14:01:35;;;;;;;6.05;2.80;;;8.30;87.30;;;;;;4122523;28;20062;-84
2023/12/14 14:03:38;;;;;;;4.53;2.53;;;8.30;87.50;;;;;;4118620;28;20113;-83
2023/12/14 14:05:40;;;;;;;4.20;2.03;;;8.20;88.50;;;;;;4116615;28;20484;-84
2023/12/14 14:07:42;;;;;;;5.25;2.58;;;8.20;88.10;;;;;;4116163;28;20476;-84
2023/12/14 14:09:44;;;;;;;4.50;2.10;;;8.20;89.20;;;;;;4115907;28;20393;-85
2023/12/14 14:11:48;;;;;;;6.07;2.30;;;8.20;88.80;;;;;;4119305;28;20490;-84
2023/12/14 14:13:51;;;;;;;5.63;2.53;;;8.20;89.50;;;;;;4120563;28;20062;-84
2023/12/14 14:15:53;;;;;;;4.10;2.00;;;8.10;89.40;;;;;;4121505;28;20050;-84
2023/12/14 14:17:55;;;;;;;5.32;2.17;;;7.90;90.10;;;;;;4120484;28;20050;-84
2023/12/14 14:19:56;;;;;;;4.50;1.90;;;7.90;90.20;;;;;;4120202;28;20046;-84
2023/12/14 14:21:58;;;;;;;4.78;1.83;;;7.90;90.60;;;;;;4119924;28;20460;-85
2023/12/14 14:24:00;;;;;;;4.82;2.20;;;7.90;90.70;;;;;;4119977;28;20408;-82
2023/12/14 14:26:02;;;;;;;4.88;2.13;;;8.00;90.60;;;;;;4119856;28;20043;-84
2023/12/14 14:28:05;;;;;;;5.88;2.10;;;7.90;90.40;;;;;;4119817;28;20125;-85
2023/12/14 14:30:09;;;;;;;4.18;2.10;;;7.80;90.70;;;;;;4120235;28;20483;-84
2023/12/14 14:32:11;;;;;;;7.18;3.40;;;7.80;90.70;;;;;;4118922;28;20047;-84
2023/12/14 14:34:13;;;;;;;3.92;2.20;;;7.80;90.90;;;;;;4119262;28;20051;-84
2023/12/14 14:36:15;;;;;;;5.90;2.33;;;7.70;90.90;;;;;;4122483;28;20078;-85
2023/12/14 14:38:17;;;;;;;4.97;2.70;;;7.80;91.00;;;;;;4110393;29;20043;-83
2023/12/14 14:40:19;;;;;;;5.65;2.72;;;7.90;91.10;;;;;;4119730;28;20086;-84
2023/12/14 14:42:21;;;;;;;5.57;2.50;;;7.90;91.00;;;;;;4120224;28;20047;-84
2023/12/14 14:44:22;;;;;;;7.80;4.10;;;7.80;91.00;;;;;;4120179;28;20057;-85
2023/12/14 14:46:26;;;;;;;6.35;3.08;;;7.80;91.20;;;;;;4111223;28;20055;-85
2023/12/14 14:48:27;;;;;;;6.65;2.63;;;7.80;91.40;;;;;;4101462;29;20492;-84
2023/12/14 14:50:29;;;;;;;4.53;2.53;;;7.80;91.30;;;;;;4101310;29;20086;-85
2023/12/14 14:52:31;;;;;;;5.10;2.38;;;7.80;91.40;;;;;;4101423;29;20047;-83
2023/12/14 14:54:33;;;;;;;5.65;2.58;;;7.80;91.40;;;;;;4102056;29;20055;-84
2023/12/14 14:56:35;;;;;;;6.07;2.85;;;7.90;91.30;;;;;;4101721;29;20055;-86
2023/12/14 14:58:37;;;;;;;5.75;2.67;;;7.90;91.20;;;;;;4101890;29;20468;-85
2023/12/14 15:00:39;;;;;;;6.32;3.05;;;7.90;91.30;;;;;;4110827;28;20055;-85
2023/12/14 15:02:42;;;;;;;12.38;7.20;;;7.80;91.30;;;;;;4117149;28;20125;-83
2023/12/14 15:04:44;;;;;;;10.88;5.43;;;7.70;91.70;;;;;;4115481;28;20803;-83
2023/12/14 15:06:45;;;;;;;6.28;2.92;;;7.70;92.10;;;;;;4116187;28;20540;-83
2023/12/14 15:08:47;;;;;;;6.60;3.92;;;7.70;91.90;;;;;;4119336;28;20054;-82
2023/12/14 15:10:49;;;;;;;6.13;3.35;;;7.60;92.00;;;;;;4108241;29;20059;-86
2023/12/14 15:12:51;;;;;;;8.27;4.18;;;7.60;92.50;;;;;;4126073;28;20085;-85
2023/12/14 15:14:54;;;;;;;9.68;4.00;;;7.60;92.60;;;;;;4132955;28;20042;-85
2023/12/14 15:16:56;;;;;;;6.80;3.70;;;7.60;92.60;;;;;;4122379;28;20054;-83
2023/12/14 15:18:58;;;;;;;8.35;4.50;;;7.60;92.60;;;;;;4117565;28;20059;-82
2023/12/14 15:21:00;;;;;;;8.20;5.13;;;7.70;92.50;;;;;;4121251;28;20058;-83
2023/12/14 15:23:05;;;;;;;9.43;4.93;;;7.70;92.40;;;;;;4103582;28;20055;-86
2023/12/14 15:25:07;;;;;;;19.42;12.20;;;7.70;92.50;;;;;;4124572;28;20047;-86
2023/12/14 15:27:09;;;;;;;12.23;5.38;;;7.70;92.50;;;;;;4120404;28;20066;-86
2023/12/14 15:29:11;;;;;;;10.60;5.65;;;7.70;92.50;;;;;;4128146;28;20047;-86
2023/12/14 15:31:13;;;;;;;9.23;5.47;;;7.60;92.60;;;;;;4118118;28;20050;-86
2023/12/14 15:33:15;;;;;;;10.25;6.15;;;7.60;93.00;;;;;;4118674;28;20050;-86
2023/12/14 15:35:18;;;;;;;10.43;6.00;;;7.60;92.90;;;;;;4117371;28;20051;-86
2023/12/14 15:37:20;;;;;;;11.15;6.03;;;7.60;92.80;;;;;;4117212;28;20058;-85
2023/12/14 15:39:22;;;;;;;12.13;6.00;;;7.60;92.60;;;;;;4126134;28;20054;-86
2023/12/14 15:41:23;;;;;;;10.15;5.88;;;7.60;92.70;;;;;;4133725;28;20120;-85
2023/12/14 15:43:24;;;;;;;11.45;6.43;;;7.60;92.80;;;;;;4134459;28;20046;-86
2023/12/14 15:45:27;;;;;;;11.15;6.53;;;7.50;93.00;;;;;;4116097;28;20184;-85
2023/12/14 15:47:29;;;;;;;17.15;9.85;;;7.50;92.90;;;;;;4123586;28;20055;-85
2023/12/14 15:49:31;;;;;;;15.23;9.00;;;7.50;92.90;;;;;;4117136;28;20476;-84
2023/12/14 15:51:34;;;;;;;12.90;7.20;;;7.50;92.90;;;;;;4117118;28;20125;-85
2023/12/14 15:53:36;;;;;;;9.70;6.22;;;7.50;93.00;;;;;;4116652;28;20066;-86
2023/12/14 15:55:38;;;;;;;10.15;6.30;;;7.50;92.90;;;;;;4123035;28;20097;-85
2023/12/14 15:57:40;;;;;;;12.77;6.10;;;7.50;93.00;;;;;;4120309;28;20463;-83
2023/12/14 15:59:42;;;;;;;11.85;6.35;;;7.40;93.20;;;;;;4116420;28;20050;-82
2023/12/14 16:01:44;;;;;;;10.75;6.57;;;7.40;93.20;;;;;;4127807;28;20492;-80
2023/12/14 16:03:46;;;;;;;11.02;6.60;;;7.30;93.40;;;;;;4118347;28;20748;-82
2023/12/14 16:05:47;;;;;;;11.95;6.68;;;7.30;93.30;;;;;;4132435;28;20494;-83
2023/12/14 16:07:50;;;;;;;13.15;7.10;;;7.40;93.40;;;;;;4132631;28;20357;-82
2023/12/14 16:09:51;;;;;;;14.85;8.27;;;7.30;93.40;;;;;;4132052;28;20058;-83
2023/12/14 16:11:53;;;;;;;14.60;7.45;;;7.30;93.60;;;;;;4132504;28;20073;-81
2023/12/14 16:13:56;;;;;;;15.43;7.90;;;7.30;93.60;;;;;;4132256;28;20047;-84
2023/12/14 16:15:58;;;;;;;13.75;7.57;;;7.20;93.60;;;;;;4132778;28;20046;-83
2023/12/14 16:18:00;;;;;;;13.45;8.00;;;7.20;93.70;;;;;;4132390;28;20050;-83
2023/12/14 16:20:03;;;;;;;12.85;7.60;;;7.20;93.70;;;;;;4124450;28;20051;-83
2023/12/14 16:22:05;;;;;;;13.18;7.63;;;7.20;93.70;;;;;;4122215;28;20133;-84
2023/12/14 16:24:08;;;;;;;14.98;8.80;;;7.20;93.90;;;;;;4093500;28;20134;-82
2023/12/14 16:26:12;;;;;;;14.43;7.57;;;7.20;93.70;;;;;;4115473;28;20073;-82
2023/12/14 16:28:14;;;;;;;14.20;8.55;;;7.20;93.70;;;;;;4111634;28;20058;-81
2023/12/14 16:30:16;;;;;;;15.88;8.25;;;7.10;93.90;;;;;;4117228;28;20061;-83
2023/12/14 16:32:19;;;;;;;15.18;8.07;;;7.10;94.10;;;;;;4125710;28;20066;-80
2023/12/14 16:34:20;;;;;;;14.32;7.93;;;7.10;94.00;;;;;;4130567;28;20501;-82
2023/12/14 16:36:22;;;;;;;14.57;7.55;;;7.10;94.00;;;;;;4109613;28;20054;-82
2023/12/14 16:38:24;;;;;;;15.80;8.52;;;7.20;94.00;;;;;;4124220;28;20070;-80
2023/12/14 16:40:27;;;;;;;16.85;9.05;;;7.20;94.00;;;;;;4115398;28;20051;-82
2023/12/14 16:42:29;;;;;;;25.65;13.45;;;7.20;93.70;;;;;;4111015;28;20043;-85
2023/12/14 16:44:31;;;;;;;38.95;19.73;;;7.30;93.80;;;;;;4093941;28;20090;-84
2023/12/14 16:46:33;;;;;;;55.90;28.10;;;7.40;93.70;;;;;;4129298;28;20069;-79